TimeCET,TemperatureF,Dew PointF,Humidity,Sea Level PressureIn,VisibilityMPH,Wind Direction,Wind SpeedMPH,Gust SpeedMPH,PrecipitationIn,Events,Conditions,WindDirDegrees,DateUTC
12:55 AM,60.8,57.2,88,29.95,5.0,WNW,5.8,-,N/A,Rain-Thunderstorm,Light Thunderstorms and Rain,300,2012-11-15 23:55:00
1:00 AM,60,57,86,29.96,2,WNW,5.8,,,Rain-Thunderstorm,Thunderstorms and Rain,300,2012-11-16 00:00:00
1:55 AM,59.0,57.2,94,29.95,4.3,NNW,6.9,-,N/A,Rain,Light Rain,330,2012-11-16 00:55:00
2:55 AM,59.0,55.4,88,29.95,5.0,NW,4.6,-,N/A,Rain,Light Rain,320,2012-11-16 01:55:00
3:55 AM,59.0,57.2,94,29.95,5.0,Calm,Calm,-,N/A,Rain,Light Rain,0,2012-11-16 02:55:00
4:55 AM,59.0,55.4,88,29.95,6.2,NW,2.3,-,N/A,,Mostly Cloudy,320,2012-11-16 03:55:00
5:55 AM,59.0,55.4,88,29.92,6.2,NNW,3.5,-,N/A,,Scattered Clouds,340,2012-11-16 04:55:00
6:55 AM,59.0,53.6,82,29.92,6.2,NE,3.5,-,N/A,,Partly Cloudy,40,2012-11-16 05:55:00
7:00 AM,59,54,77,29.93,12,NE,3.5,,,,Partly Cloudy,40,2012-11-16 06:00:00
7:55 AM,59.0,53.6,82,29.92,6.2,North,3.5,-,N/A,,Scattered Clouds,350,2012-11-16 06:55:00
8:55 AM,62.6,53.6,72,29.95,6.2,NNW,4.6,-,N/A,,Scattered Clouds,330,2012-11-16 07:55:00
9:55 AM,64.4,53.6,68,29.95,6.2,North,2.3,-,N/A,,Mostly Cloudy,360,2012-11-16 08:55:00
10:55 AM,64.4,51.8,64,29.98,6.2,NE,2.3,-,N/A,,Mostly Cloudy,40,2012-11-16 09:55:00
11:55 AM,66.2,51.8,60,29.95,6.2,ENE,5.8,-,N/A,,Mostly Cloudy,70,2012-11-16 10:55:00
12:55 PM,66.2,55.4,68,29.95,6.2,ENE,6.9,-,N/A,,Scattered Clouds,60,2012-11-16 11:55:00
1:00 PM,66,54,57,29.96,6,ENE,6.9,,,,Partly Cloudy,60,2012-11-16 12:00:00
1:55 PM,66.2,55.4,68,29.95,6.2,NE,3.5,-,N/A,,Mostly Cloudy,50,2012-11-16 12:55:00
2:55 PM,64.4,55.4,73,29.95,6.2,NE,3.5,-,N/A,,Scattered Clouds,40,2012-11-16 13:55:00
3:55 PM,64.4,59.0,83,29.95,6.2,NE,4.6,-,N/A,,Scattered Clouds,50,2012-11-16 14:55:00
4:55 PM,64.4,57.2,77,29.95,6.2,NNE,3.5,-,N/A,,Mostly Cloudy,30,2012-11-16 15:55:00
5:55 PM,62.6,55.4,77,29.95,6.2,North,2.3,-,N/A,,Scattered Clouds,350,2012-11-16 16:55:00
6:55 PM,62.6,55.4,77,29.95,6.2,NW,3.5,-,N/A,,Scattered Clouds,320,2012-11-16 17:55:00
7:00 PM,63,56,70,29.96,6,NW,3.5,,,,Partly Cloudy,320,2012-11-16 18:00:00
7:55 PM,62.6,55.4,77,29.95,6.2,North,2.3,-,N/A,,Scattered Clouds,360,2012-11-16 18:55:00
8:55 PM,62.6,55.4,77,29.98,6.2,NW,4.6,-,N/A,,Partly Cloudy,320,2012-11-16 19:55:00
9:55 PM,62.6,55.4,77,29.98,6.2,NW,2.3,-,N/A,,Scattered Clouds,320,2012-11-16 20:55:00
10:55 PM,62.6,57.2,82,29.98,6.2,Calm,Calm,-,N/A,,Scattered Clouds,0,2012-11-16 21:55:00
11:55 PM,62.6,57.2,82,29.95,6.2,Calm,Calm,-,N/A,,Scattered Clouds,0,2012-11-16 22:55:00